createdAt,value
2022-08-07T00:02:39.839Z,15.49
2022-08-07T00:07:18.831Z,15.35
2022-08-07T00:12:19.649Z,15.29
2022-08-07T00:17:21.619Z,15.22
2022-08-07T00:22:24.728Z,15.02
2022-08-07T00:27:53.345Z,14.86
2022-08-07T00:32:56.217Z,15.14
2022-08-07T00:37:57.441Z,14.90
2022-08-07T00:42:58.183Z,14.79
2022-08-07T00:48:09.784Z,14.68
2022-08-07T00:53:12.050Z,14.73
2022-08-07T00:58:13.234Z,14.77
2022-08-07T01:03:15.240Z,14.64
2022-08-07T01:08:17.446Z,14.57
2022-08-07T01:13:21.754Z,14.72
2022-08-07T01:18:24.796Z,14.62
2022-08-07T01:23:36.345Z,14.57
2022-08-07T01:28:40.507Z,14.45
2022-08-07T01:33:55.077Z,14.75
2022-08-07T01:39:09.602Z,14.85
2022-08-07T01:44:12.978Z,14.80
2022-08-07T01:49:15.531Z,14.46
2022-08-07T01:54:33.402Z,14.18
2022-08-07T01:59:45.232Z,14.04
2022-08-07T02:04:56.369Z,14.02
2022-08-07T02:10:04.728Z,14.25
2022-08-07T02:15:12.363Z,14.32
2022-08-07T02:20:23.350Z,14.02
2022-08-07T02:26:11.399Z,13.93
2022-08-07T02:30:53.121Z,14.05
2022-08-07T02:36:28.872Z,14.29
2022-08-07T02:41:21.544Z,13.94
2022-08-07T02:46:27.325Z,13.88
2022-08-07T02:51:42.357Z,14.05
2022-08-07T02:56:54.111Z,13.98
2022-08-07T03:01:55.941Z,14.13
2022-08-07T03:07:07.166Z,13.77
2022-08-07T03:12:22.726Z,13.79
2022-08-07T03:17:53.460Z,13.76
2022-08-07T03:22:57.006Z,13.66
2022-08-07T03:28:09.710Z,13.69
2022-08-07T03:33:23.206Z,13.41
2022-08-07T03:38:29.925Z,13.28
2022-08-07T03:43:38.053Z,13.21
2022-08-07T03:49:03.144Z,13.48
2022-08-07T03:54:36.436Z,13.49
2022-08-07T03:59:32.257Z,13.29
2022-08-07T04:04:33.433Z,13.27
2022-08-07T04:09:45.412Z,13.53
2022-08-07T04:14:57.937Z,13.65
2022-08-07T04:20:01.797Z,13.61
2022-08-07T04:25:08.890Z,13.33
2022-08-07T04:30:21.212Z,13.29
2022-08-07T04:35:41.556Z,13.58
2022-08-07T04:40:52.843Z,13.54
2022-08-07T04:46:29.254Z,13.51
2022-08-07T04:51:42.639Z,13.66
2022-08-07T04:58:09.807Z,13.80
2022-08-07T05:02:16.795Z,13.93
2022-08-07T05:07:30.596Z,13.95
2022-08-07T05:12:46.412Z,14.12
2022-08-07T05:18:01.357Z,14.27
2022-08-07T05:23:16.013Z,14.36
2022-08-07T05:28:23.390Z,14.30
2022-08-07T05:33:35.468Z,14.26
2022-08-07T05:39:00.770Z,14.32
2022-08-07T05:44:12.178Z,14.46
2022-08-07T05:49:21.054Z,14.66
2022-08-07T05:54:30.282Z,14.78
2022-08-07T05:59:46.596Z,14.62
2022-08-07T06:05:04.290Z,14.70
2022-08-07T06:10:06.707Z,14.87
2022-08-07T06:15:20.338Z,14.75
2022-08-07T06:20:25.684Z,15.03
2022-08-07T06:25:54.761Z,15.23
2022-08-07T06:30:58.921Z,15.29
2022-08-07T06:36:12.455Z,15.86
2022-08-07T06:42:00.584Z,15.81
2022-08-07T06:46:53.257Z,15.64
2022-08-07T06:52:07.455Z,15.78
2022-08-07T06:57:13.570Z,16.25
2022-08-07T07:02:48.539Z,16.35
2022-08-07T07:08:00.238Z,16.60
2022-08-07T07:13:13.252Z,16.67
2022-08-07T07:18:19.107Z,16.78
2022-08-07T07:24:11.126Z,17.09
2022-08-07T07:29:56.834Z,17.32
2022-08-07T07:34:32.000Z,17.48
2022-08-07T07:39:52.393Z,17.66
2022-08-07T07:44:57.474Z,17.84
2022-08-07T07:50:35.717Z,18.03
2022-08-07T07:55:23.001Z,18.13
2022-08-07T08:00:31.326Z,18.44
2022-08-07T08:05:50.920Z,18.92
2022-08-07T08:10:57.617Z,19.22
2022-08-07T08:16:01.808Z,19.64
2022-08-07T08:21:03.375Z,20.04
2022-08-07T08:26:24.189Z,20.22
2022-08-07T08:32:17.569Z,20.37
2022-08-07T08:37:10.010Z,20.66
2022-08-07T08:42:32.740Z,21.23
2022-08-07T08:47:52.173Z,21.29
2022-08-07T08:53:01.013Z,21.44
2022-08-07T08:58:13.030Z,21.54
2022-08-07T09:03:48.019Z,21.78
2022-08-07T09:08:57.813Z,21.98
2022-08-07T09:14:12.199Z,22.04
2022-08-07T09:19:52.015Z,22.36
2022-08-07T09:25:11.973Z,22.49
2022-08-07T09:30:28.055Z,22.62
2022-08-07T09:36:03.111Z,22.82
2022-08-07T09:41:08.852Z,23.21
2022-08-07T09:47:49.711Z,23.36
2022-08-07T09:52:15.407Z,23.66
2022-08-07T09:58:04.931Z,23.67
2022-08-07T10:04:05.127Z,23.69
2022-08-07T10:09:09.222Z,23.43
2022-08-07T10:14:23.093Z,23.37
2022-08-07T10:20:12.907Z,23.56
2022-08-07T10:25:22.918Z,23.66
2022-08-07T10:30:34.654Z,23.69
2022-08-07T10:36:11.210Z,23.54
2022-08-07T10:41:47.109Z,23.69
2022-08-07T10:46:43.691Z,23.58
2022-08-07T10:52:13.390Z,23.61
2022-08-07T10:57:34.588Z,23.61
2022-08-07T11:02:49.374Z,23.53
2022-08-07T11:08:03.018Z,23.41
2022-08-07T11:13:16.812Z,23.10
2022-08-07T11:18:39.705Z,23.42
2022-08-07T11:23:53.599Z,23.40
2022-08-07T11:28:59.842Z,23.45
2022-08-07T11:34:06.820Z,23.58
2022-08-07T11:39:22.444Z,23.74
2022-08-07T11:44:40.504Z,23.82
2022-08-07T11:50:25.352Z,23.56
2022-08-07T11:56:25.507Z,23.68
2022-08-07T12:02:00.590Z,24.11
2022-08-07T12:07:03.120Z,24.16
2022-08-07T12:12:14.685Z,24.52
2022-08-07T12:17:20.468Z,24.60
2022-08-07T12:22:39.274Z,24.40
2022-08-07T12:28:08.589Z,24.37
2022-08-07T12:33:23.077Z,24.49
2022-08-07T12:38:36.907Z,24.55
2022-08-07T12:43:58.790Z,24.66
2022-08-07T12:49:25.541Z,24.48
2022-08-07T12:54:44.069Z,24.77
2022-08-07T12:59:59.799Z,24.72
2022-08-07T13:06:04.112Z,24.63
2022-08-07T13:10:51.561Z,24.34
2022-08-07T13:16:01.667Z,24.79
2022-08-07T13:21:10.607Z,25.03
2022-08-07T13:26:18.164Z,25.32
2022-08-07T13:31:23.799Z,25.48
2022-08-07T13:36:44.306Z,25.57
2022-08-07T13:41:49.320Z,25.74
2022-08-07T13:46:54.339Z,25.22
2022-08-07T13:52:23.096Z,25.39
2022-08-07T13:57:24.082Z,25.36
2022-08-07T14:02:39.482Z,25.46
2022-08-07T14:07:59.502Z,24.89
2022-08-07T14:13:03.805Z,24.74
2022-08-07T14:18:24.187Z,25.07
2022-08-07T14:24:00.109Z,25.19
2022-08-07T14:29:02.942Z,25.34
2022-08-07T14:34:19.953Z,25.67
2022-08-07T14:40:16.129Z,25.63
2022-08-07T14:44:48.511Z,25.42
2022-08-07T14:49:59.248Z,25.52
2022-08-07T14:55:02.470Z,25.67
2022-08-07T15:00:06.778Z,26.00
2022-08-07T15:10:37.599Z,26.15
2022-08-07T15:15:42.048Z,26.28
2022-08-07T15:20:55.399Z,26.32
2022-08-07T15:25:58.355Z,26.36
2022-08-07T15:31:05.774Z,26.36
2022-08-07T15:36:10.268Z,26.65
2022-08-07T15:41:23.823Z,26.51
2022-08-07T15:46:51.598Z,26.86
2022-08-07T15:52:02.753Z,26.82
2022-08-07T15:57:05.762Z,26.31
2022-08-07T16:02:08.992Z,25.98
2022-08-07T16:08:32.821Z,26.54
2022-08-07T16:13:05.487Z,26.73
2022-08-07T16:18:14.349Z,26.46
2022-08-07T16:23:52.269Z,26.35
2022-08-07T16:30:07.193Z,26.88
2022-08-07T16:34:48.424Z,27.09
2022-08-07T16:40:28.432Z,28.20
2022-08-07T16:47:05.973Z,28.80
2022-08-07T16:52:01.667Z,30.71
2022-08-07T16:58:02.666Z,30.30
2022-08-07T17:03:17.239Z,31.12
2022-08-07T17:09:08.573Z,32.33
2022-08-07T17:14:17.802Z,32.34
2022-08-07T17:20:00.380Z,30.86
2022-08-07T17:25:00.858Z,29.94
2022-08-07T17:30:14.764Z,30.62
2022-08-07T17:35:49.690Z,30.64
2022-08-07T17:40:52.674Z,30.28
2022-08-07T17:46:11.273Z,29.57
2022-08-07T17:51:21.556Z,29.94
2022-08-07T17:56:29.723Z,29.41
2022-08-07T18:01:37.957Z,26.77
2022-08-07T18:06:46.159Z,24.94
2022-08-07T18:12:19.407Z,24.07
2022-08-07T18:18:45.834Z,23.51
2022-08-07T18:23:04.659Z,23.10
2022-08-07T18:28:21.557Z,22.62
2022-08-07T18:34:40.873Z,22.30
2022-08-07T18:40:09.058Z,22.01
2022-08-07T18:45:43.445Z,21.80
2022-08-07T18:50:54.051Z,21.52
2022-08-07T18:56:06.831Z,21.28
2022-08-07T19:02:17.360Z,21.08
2022-08-07T19:06:49.778Z,20.91
2022-08-07T19:12:15.545Z,20.65
2022-08-07T19:17:55.635Z,20.43
2022-08-07T19:23:18.553Z,20.28
2022-08-07T19:30:56.253Z,20.18
2022-08-07T19:33:47.033Z,20.11
2022-08-07T19:39:09.279Z,20.02
2022-08-07T19:44:21.436Z,20.06
2022-08-07T19:49:56.381Z,19.79
2022-08-07T19:54:55.711Z,19.75
2022-08-07T20:00:02.880Z,19.59
2022-08-07T20:05:13.516Z,19.51
2022-08-07T20:10:38.212Z,19.46
2022-08-07T20:15:41.704Z,19.19
2022-08-07T20:20:44.420Z,19.15
2022-08-07T20:25:52.868Z,19.06
2022-08-07T20:30:54.922Z,18.91
2022-08-07T20:36:03.515Z,18.73
2022-08-07T20:41:08.008Z,18.64
2022-08-07T20:46:26.007Z,18.57
2022-08-07T20:51:36.083Z,18.52
2022-08-07T20:56:46.184Z,18.64
2022-08-07T21:01:55.266Z,18.66
2022-08-07T21:07:04.546Z,18.65
2022-08-07T21:12:28.849Z,18.51
2022-08-07T21:18:28.041Z,18.44
2022-08-07T21:22:58.348Z,18.24
2022-08-07T21:28:10.050Z,18.15
2022-08-07T21:33:21.724Z,18.03
2022-08-07T21:38:29.428Z,18.10
2022-08-07T21:43:55.240Z,18.01
2022-08-07T21:49:02.836Z,17.80
2022-08-07T21:54:14.900Z,17.82
2022-08-07T22:00:02.603Z,17.65
2022-08-07T22:04:56.819Z,17.66
2022-08-07T22:10:03.183Z,17.60
2022-08-07T22:16:38.900Z,17.62
2022-08-07T22:20:40.590Z,17.57
2022-08-07T22:25:47.942Z,17.51
2022-08-07T22:30:58.607Z,17.42
2022-08-07T22:36:03.266Z,17.30
2022-08-07T22:41:13.173Z,17.13
2022-08-07T22:47:06.378Z,17.14
2022-08-07T22:52:40.012Z,17.10
2022-08-07T22:57:59.025Z,17.08
2022-08-07T23:03:23.746Z,16.95
2022-08-07T23:08:58.447Z,16.82
2022-08-07T23:14:30.853Z,16.74
2022-08-07T23:20:02.885Z,16.57
2022-08-07T23:25:20.963Z,16.40
2022-08-07T23:30:38.975Z,16.40
2022-08-07T23:35:51.488Z,16.50
2022-08-07T23:41:03.681Z,16.28
2022-08-07T23:46:23.497Z,16.29
2022-08-07T23:53:05.924Z,16.37
2022-08-07T23:57:01.897Z,16.37
